Time;durP1;ratioP1;P1;durP2;ratioP2;P2;SDS_P1;SDS_P2;PMS_P1;PMS_P2;Temp;Humidity;BMP_temperature;BMP_pressure;BME280_temperature;BME280_humidity;BME280_pressure;Samples;Min_cycle;Max_cycle;Signal;HPM_P1;HPM_P2
2023/10/28 00:00:17;;;;;;;0.80;0.80;;;9.90;99.90;;;;;;5083375;28;20570;-81
2023/10/28 00:02:44;;;;;;;0.50;0.40;;;9.90;99.90;;;;;;5082528;28;20190;-82
2023/10/28 00:05:10;;;;;;;0.50;0.40;;;9.90;99.90;;;;;;5082396;28;20432;-83
2023/10/28 00:07:37;;;;;;;0.80;0.80;;;10.00;99.90;;;;;;5082641;28;20215;-82
2023/10/28 00:10:07;;;;;;;0.50;0.40;;;10.00;99.90;;;;;;5083325;28;20200;-82
2023/10/28 00:12:34;;;;;;;0.50;0.40;;;10.00;99.90;;;;;;5081913;28;20274;-79
2023/10/28 00:15:03;;;;;;;0.50;0.40;;;10.00;99.90;;;;;;5082647;28;20195;-82
2023/10/28 00:17:30;;;;;;;0.50;0.40;;;10.00;99.90;;;;;;5083668;28;20218;-81
2023/10/28 00:19:56;;;;;;;0.50;0.40;;;10.10;99.90;;;;;;5082178;28;20236;-82
2023/10/28 00:22:23;;;;;;;0.60;0.60;;;10.00;99.90;;;;;;5082438;28;20187;-84
2023/10/28 00:24:50;;;;;;;0.50;0.40;;;10.10;99.90;;;;;;5082189;28;20194;-79
2023/10/28 00:27:17;;;;;;;0.50;0.40;;;10.10;99.90;;;;;;5082923;28;20302;-82
2023/10/28 00:29:48;;;;;;;0.47;0.40;;;10.10;99.90;;;;;;5082269;28;20232;-82
2023/10/28 00:32:16;;;;;;;9.57;0.95;;;10.20;99.90;;;;;;5082084;28;20217;-82
2023/10/28 00:34:43;;;;;;;2.72;2.47;;;10.20;99.90;;;;;;5082891;28;20240;-82
2023/10/28 00:37:11;;;;;;;1.80;0.65;;;10.10;99.90;;;;;;5082597;28;20306;-80
2023/10/28 00:39:38;;;;;;;0.52;0.52;;;10.10;99.90;;;;;;5082214;28;20217;-83
2023/10/28 00:42:05;;;;;;;0.98;0.50;;;10.10;99.90;;;;;;5082762;28;20189;-82
2023/10/28 00:44:32;;;;;;;0.50;0.50;;;10.10;99.90;;;;;;5082408;28;20221;-81
2023/10/28 00:46:59;;;;;;;0.50;0.40;;;10.10;99.90;;;;;;5073674;28;20725;-82
2023/10/28 00:49:29;;;;;;;0.50;0.40;;;10.10;99.90;;;;;;5082156;28;20208;-82
2023/10/28 00:51:56;;;;;;;0.50;0.40;;;10.10;99.90;;;;;;5082403;28;20254;-82
2023/10/28 00:54:24;;;;;;;0.50;0.40;;;10.10;99.90;;;;;;5082701;28;20190;-84
2023/10/28 00:56:50;;;;;;;5.40;2.33;;;10.10;99.90;;;;;;5084628;28;20198;-83
2023/10/28 00:59:18;;;;;;;0.50;0.40;;;10.20;99.90;;;;;;5086216;28;20250;-83
2023/10/28 01:01:45;;;;;;;0.50;0.40;;;10.20;99.90;;;;;;5086062;28;20198;-79
2023/10/28 01:04:12;;;;;;;2.83;1.77;;;10.20;99.90;;;;;;5085931;28;20943;-82
2023/10/28 01:06:40;;;;;;;0.50;0.40;;;10.30;99.90;;;;;;5086583;28;20205;-80
2023/10/28 01:09:08;;;;;;;0.45;0.40;;;10.30;99.90;;;;;;5086256;28;20561;-81
2023/10/28 01:11:37;;;;;;;2.10;1.73;;;10.30;99.90;;;;;;5085510;28;20262;-83
2023/10/28 01:14:04;;;;;;;0.50;0.40;;;10.30;99.90;;;;;;5086315;28;20788;-82
2023/10/28 01:16:31;;;;;;;3.65;3.45;;;10.30;99.90;;;;;;5086132;28;20257;-82
2023/10/28 01:18:57;;;;;;;0.50;0.40;;;10.30;99.90;;;;;;5086296;28;20269;-82
2023/10/28 01:21:26;;;;;;;0.50;0.40;;;10.30;99.90;;;;;;5086007;28;20195;-82
2023/10/28 01:23:52;;;;;;;0.50;0.40;;;10.30;99.90;;;;;;5086489;28;20284;-82
2023/10/28 01:26:19;;;;;;;0.50;0.40;;;10.30;99.90;;;;;;5085778;28;20258;-83
2023/10/28 01:28:46;;;;;;;0.50;0.40;;;10.30;99.90;;;;;;5085419;28;20222;-81
2023/10/28 01:31:13;;;;;;;0.50;0.50;;;10.30;99.90;;;;;;5085141;28;20197;-83
2023/10/28 01:33:40;;;;;;;0.80;0.55;;;10.30;99.90;;;;;;5146394;22;20221;-83
2023/10/28 01:36:07;;;;;;;0.50;0.40;;;10.40;99.90;;;;;;5111666;27;20284;-84
2023/10/28 01:38:36;;;;;;;0.50;0.40;;;10.30;99.90;;;;;;5125512;27;20197;-83
2023/10/28 01:41:03;;;;;;;0.50;0.40;;;10.30;99.90;;;;;;5129172;27;20795;-82
2023/10/28 01:43:30;;;;;;;0.50;0.40;;;10.30;99.90;;;;;;5135666;27;20212;-84
2023/10/28 01:45:57;;;;;;;0.50;0.40;;;10.40;99.90;;;;;;5117844;27;20193;-82
2023/10/28 01:48:24;;;;;;;0.50;0.40;;;10.30;99.90;;;;;;5126208;27;20600;-82
2023/10/28 01:50:50;;;;;;;0.70;0.65;;;10.30;99.90;;;;;;5117669;28;20227;-82
2023/10/28 01:53:17;;;;;;;2.20;2.10;;;10.30;99.90;;;;;;5132150;27;20587;-82
2023/10/28 01:55:47;;;;;;;6.13;1.25;;;10.30;99.90;;;;;;5137056;27;20216;-84
2023/10/28 01:58:14;;;;;;;0.50;0.47;;;10.30;99.90;;;;;;5125920;27;20693;-82
2023/10/28 02:00:41;;;;;;;0.88;0.88;;;10.30;99.90;;;;;;5126469;27;20442;-82
2023/10/28 02:03:11;;;;;;;0.60;0.60;;;10.30;99.90;;;;;;5129512;27;20620;-83
2023/10/28 02:05:38;;;;;;;0.50;0.40;;;10.30;99.90;;;;;;5129307;27;20207;-83
2023/10/28 02:08:06;;;;;;;0.45;0.40;;;10.30;99.90;;;;;;5119096;27;20192;-84
2023/10/28 02:10:33;;;;;;;0.63;0.60;;;10.30;99.90;;;;;;5129537;27;20200;-80
2023/10/28 02:13:01;;;;;;;0.70;0.70;;;10.30;99.90;;;;;;5127169;27;20480;-84
2023/10/28 02:15:29;;;;;;;1.52;0.93;;;10.20;99.90;;;;;;5125450;27;20204;-85
2023/10/28 02:17:57;;;;;;;0.50;0.43;;;10.20;99.90;;;;;;5128445;27;20597;-84
2023/10/28 02:20:24;;;;;;;0.50;0.40;;;10.20;99.90;;;;;;5127983;27;20453;-84
2023/10/28 02:22:50;;;;;;;0.50;0.40;;;10.20;99.90;;;;;;5126373;27;20214;-85
2023/10/28 02:25:18;;;;;;;0.50;0.40;;;10.20;99.90;;;;;;5127690;27;20378;-86
2023/10/28 02:27:46;;;;;;;0.50;0.40;;;10.20;99.90;;;;;;5128124;27;20197;-84
2023/10/28 02:30:15;;;;;;;0.50;0.40;;;10.20;99.90;;;;;;5131740;27;20227;-84
2023/10/28 02:32:42;;;;;;;0.50;0.40;;;10.10;99.90;;;;;;5130950;27;20216;-84
2023/10/28 02:35:09;;;;;;;0.60;0.60;;;10.10;99.90;;;;;;5118906;27;20224;-84
2023/10/28 02:37:35;;;;;;;0.65;0.50;;;10.10;99.90;;;;;;5126771;27;20192;-83
2023/10/28 02:40:04;;;;;;;0.50;0.40;;;10.10;99.90;;;;;;5129347;27;20269;-84
2023/10/28 02:42:30;;;;;;;0.50;0.40;;;10.00;99.90;;;;;;5129369;27;20249;-84
2023/10/28 02:44:57;;;;;;;0.65;0.65;;;10.00;99.90;;;;;;5127134;27;20200;-83
2023/10/28 02:47:25;;;;;;;0.50;0.40;;;10.00;99.90;;;;;;5125167;27;20195;-84
2023/10/28 02:49:52;;;;;;;0.50;0.40;;;10.00;99.90;;;;;;5126373;27;20201;-83
2023/10/28 02:52:19;;;;;;;0.50;0.40;;;10.00;99.90;;;;;;5127924;27;20722;-84
2023/10/28 02:54:46;;;;;;;0.43;0.40;;;10.00;99.90;;;;;;5128146;27;20221;-82
2023/10/28 02:57:12;;;;;;;0.40;0.40;;;10.00;99.90;;;;;;5127882;27;20193;-81
2023/10/28 02:59:39;;;;;;;0.45;0.40;;;10.00;99.90;;;;;;5128752;27;20569;-83
2023/10/28 03:02:06;;;;;;;0.50;0.40;;;10.00;99.90;;;;;;5132360;27;20201;-83
2023/10/28 03:04:34;;;;;;;0.50;0.40;;;10.00;99.90;;;;;;5124701;27;20304;-83
2023/10/28 03:07:01;;;;;;;0.45;0.40;;;9.90;99.90;;;;;;5126502;27;20676;-82
2023/10/28 03:09:30;;;;;;;39.38;22.15;;;9.90;99.90;;;;;;5127902;27;20196;-85
2023/10/28 03:11:57;;;;;;;0.50;0.40;;;9.90;99.90;;;;;;5127922;27;20193;-83
2023/10/28 03:14:24;;;;;;;1.38;1.30;;;9.90;99.90;;;;;;5136383;27;20248;-82
2023/10/28 03:16:51;;;;;;;0.50;0.40;;;9.90;99.90;;;;;;5126671;27;20219;-84
2023/10/28 03:19:17;;;;;;;1.15;1.05;;;9.80;99.90;;;;;;5125598;27;20612;-83
2023/10/28 03:21:45;;;;;;;0.50;0.40;;;9.80;99.90;;;;;;5126377;27;20204;-84
2023/10/28 03:24:12;;;;;;;0.50;0.40;;;9.80;99.90;;;;;;5120316;27;20244;-83
2023/10/28 03:26:39;;;;;;;0.45;0.40;;;9.70;99.90;;;;;;5128485;27;20200;-84
2023/10/28 03:29:06;;;;;;;0.50;0.40;;;9.80;99.90;;;;;;5124839;27;20189;-83
2023/10/28 03:31:33;;;;;;;7.55;5.00;;;9.80;99.90;;;;;;5124125;27;20197;-85
2023/10/28 03:34:00;;;;;;;0.68;0.68;;;9.80;99.90;;;;;;5125963;27;20216;-83
2023/10/28 03:36:27;;;;;;;0.50;0.40;;;9.80;99.90;;;;;;5131896;27;20199;-81
2023/10/28 03:38:55;;;;;;;0.50;0.40;;;9.70;99.90;;;;;;5125148;27;20228;-84
2023/10/28 03:41:22;;;;;;;0.50;0.40;;;9.70;99.90;;;;;;5128881;27;20196;-81
2023/10/28 03:43:49;;;;;;;0.50;0.40;;;9.70;99.90;;;;;;5129348;27;20271;-82
2023/10/28 03:46:18;;;;;;;0.50;0.40;;;9.70;99.90;;;;;;5125289;27;20193;-83
2023/10/28 03:48:45;;;;;;;0.50;0.50;;;9.70;99.90;;;;;;5124260;27;20679;-83
2023/10/28 03:51:11;;;;;;;0.50;0.40;;;9.70;99.90;;;;;;5124982;27;20438;-84
2023/10/28 03:53:38;;;;;;;0.45;0.40;;;9.70;99.90;;;;;;5124274;27;20228;-80
2023/10/28 03:56:08;;;;;;;0.50;0.40;;;9.70;99.90;;;;;;5127005;27;20204;-83
2023/10/28 03:58:35;;;;;;;0.40;0.40;;;9.70;99.90;;;;;;5122147;27;20683;-84
2023/10/28 04:01:02;;;;;;;0.50;0.40;;;9.70;99.90;;;;;;5125834;27;20201;-84
2023/10/28 04:03:29;;;;;;;0.50;0.40;;;9.70;99.90;;;;;;5128879;27;20453;-83
2023/10/28 04:05:56;;;;;;;0.63;0.63;;;9.60;99.90;;;;;;5127652;27;20287;-82
2023/10/28 04:08:22;;;;;;;0.47;0.40;;;9.70;99.90;;;;;;5124073;27;20264;-83
2023/10/28 04:10:49;;;;;;;0.47;0.40;;;9.70;99.90;;;;;;5124190;27;20204;-83
2023/10/28 04:13:18;;;;;;;1.63;1.15;;;9.60;99.90;;;;;;5124612;27;20212;-84
2023/10/28 04:15:46;;;;;;;0.50;0.40;;;9.70;99.90;;;;;;5124762;27;20228;-84
2023/10/28 04:18:13;;;;;;;0.50;0.40;;;9.70;99.90;;;;;;5126398;27;20203;-84
2023/10/28 04:20:39;;;;;;;0.50;0.50;;;9.70;99.90;;;;;;5127991;27;20263;-81
2023/10/28 04:23:06;;;;;;;0.50;0.40;;;9.70;99.90;;;;;;5124656;27;20227;-83
2023/10/28 04:25:33;;;;;;;0.47;0.30;;;9.70;99.90;;;;;;5129655;27;20200;-83
2023/10/28 04:28:00;;;;;;;0.50;0.40;;;9.70;99.90;;;;;;5127262;27;20201;-83
2023/10/28 04:30:30;;;;;;;0.50;0.40;;;9.70;99.90;;;;;;5123165;28;20199;-83
2023/10/28 04:32:56;;;;;;;1.73;1.63;;;9.70;99.90;;;;;;5130297;27;20277;-83
2023/10/28 04:35:24;;;;;;;0.50;0.38;;;9.70;99.90;;;;;;5130668;27;20201;-83
2023/10/28 04:37:51;;;;;;;0.65;0.65;;;9.60;99.90;;;;;;5129749;27;20196;-83
2023/10/28 04:40:18;;;;;;;0.50;0.40;;;9.60;99.90;;;;;;5128729;27;20193;-84
2023/10/28 04:42:47;;;;;;;0.50;0.40;;;9.60;99.90;;;;;;5128923;27;20772;-83
2023/10/28 04:45:14;;;;;;;0.50;0.40;;;9.50;99.90;;;;;;5129933;27;20250;-83
2023/10/28 04:47:42;;;;;;;0.50;0.40;;;9.40;99.90;;;;;;5129693;27;20283;-82
2023/10/28 04:50:09;;;;;;;3.90;1.48;;;9.40;99.90;;;;;;5129694;27;20217;-83
2023/10/28 04:52:36;;;;;;;0.50;0.40;;;9.30;99.90;;;;;;5129406;27;20200;-84
2023/10/28 04:55:03;;;;;;;0.50;0.40;;;9.40;99.90;;;;;;5128509;27;20227;-84
2023/10/28 04:57:30;;;;;;;0.50;0.50;;;9.40;99.90;;;;;;5126415;27;20675;-80
2023/10/28 04:59:57;;;;;;;0.50;0.40;;;9.40;99.90;;;;;;5126362;27;20204;-83
2023/10/28 05:02:24;;;;;;;0.50;0.40;;;9.30;99.90;;;;;;5130171;27;20193;-83
2023/10/28 05:04:52;;;;;;;3.10;1.45;;;9.40;99.90;;;;;;5122611;27;20197;-83
2023/10/28 05:07:19;;;;;;;0.50;0.40;;;9.40;99.90;;;;;;5129316;27;20917;-83
2023/10/28 05:09:45;;;;;;;0.50;0.40;;;9.40;99.90;;;;;;5129955;27;20226;-84
2023/10/28 05:12:12;;;;;;;0.50;0.40;;;9.40;99.90;;;;;;5127335;27;20204;-83
2023/10/28 05:14:39;;;;;;;0.50;0.40;;;9.40;99.90;;;;;;5125686;27;20221;-85
2023/10/28 05:17:06;;;;;;;0.50;0.40;;;9.40;99.90;;;;;;5126501;27;20710;-85
2023/10/28 05:19:33;;;;;;;0.50;0.40;;;9.40;99.90;;;;;;5129179;27;20667;-83
2023/10/28 05:22:03;;;;;;;0.50;0.40;;;9.40;99.90;;;;;;5120906;27;20197;-83
2023/10/28 05:24:30;;;;;;;0.60;0.60;;;9.30;99.90;;;;;;5130283;27;20686;-85
2023/10/28 05:26:58;;;;;;;0.50;0.40;;;9.30;99.90;;;;;;5129053;27;20204;-85
2023/10/28 05:29:24;;;;;;;0.50;0.40;;;9.30;99.90;;;;;;5117281;27;20189;-85
2023/10/28 05:31:56;;;;;;;0.50;0.40;;;9.30;99.90;;;;;;5126269;27;20207;-85
2023/10/28 05:34:23;;;;;;;0.50;0.40;;;9.30;99.90;;;;;;5128257;27;20208;-85
2023/10/28 05:36:50;;;;;;;0.47;0.40;;;9.30;99.90;;;;;;5125236;27;20209;-85
2023/10/28 05:39:20;;;;;;;0.50;0.40;;;9.30;99.90;;;;;;5126413;27;20211;-85
2023/10/28 05:41:47;;;;;;;0.50;0.40;;;9.40;99.90;;;;;;5124445;27;20197;-84
2023/10/28 05:44:14;;;;;;;0.50;0.40;;;9.30;99.90;;;;;;5126732;27;20320;-85
2023/10/28 05:46:41;;;;;;;0.50;0.40;;;9.40;99.90;;;;;;5126382;27;20205;-85
2023/10/28 05:49:10;;;;;;;0.50;0.40;;;9.40;99.90;;;;;;5126942;27;20201;-84
2023/10/28 05:51:36;;;;;;;0.50;0.40;;;9.40;99.90;;;;;;5124637;27;20201;-83
2023/10/28 05:54:04;;;;;;;0.50;0.50;;;9.40;99.90;;;;;;5124997;27;20758;-86
2023/10/28 05:56:32;;;;;;;0.50;0.40;;;9.50;99.90;;;;;;5128752;27;20622;-83
2023/10/28 05:59:00;;;;;;;0.50;0.40;;;9.50;99.90;;;;;;5129681;27;20611;-84
2023/10/28 06:01:28;;;;;;;1.52;1.52;;;9.50;99.90;;;;;;5117149;27;20195;-85
2023/10/28 06:03:54;;;;;;;0.50;0.40;;;9.50;99.90;;;;;;5125234;27;20213;-85
2023/10/28 06:06:21;;;;;;;0.50;0.40;;;9.60;99.90;;;;;;5133635;27;20292;-85
2023/10/28 06:08:48;;;;;;;0.73;0.50;;;9.50;99.90;;;;;;5125972;27;20229;-87
2023/10/28 06:11:15;;;;;;;0.50;0.40;;;9.50;99.90;;;;;;5129357;27;20193;-83
2023/10/28 06:13:43;;;;;;;0.50;0.40;;;9.50;99.90;;;;;;5130501;27;20247;-84
2023/10/28 06:16:10;;;;;;;0.45;0.40;;;9.50;99.90;;;;;;5129096;27;20204;-84
2023/10/28 06:18:37;;;;;;;0.50;0.40;;;9.60;99.90;;;;;;5129120;27;20203;-87
2023/10/28 06:21:05;;;;;;;0.50;0.40;;;9.60;99.90;;;;;;5132084;27;20192;-82
2023/10/28 06:23:31;;;;;;;0.50;0.40;;;9.60;99.90;;;;;;5127759;27;20701;-85
2023/10/28 06:25:58;;;;;;;0.50;0.40;;;9.60;99.90;;;;;;5135654;27;20216;-86
2023/10/28 06:28:25;;;;;;;0.60;0.40;;;9.70;99.90;;;;;;5134234;27;20271;-86
2023/10/28 06:30:53;;;;;;;0.63;0.63;;;9.70;99.90;;;;;;5136255;27;20284;-86
2023/10/28 06:33:20;;;;;;;0.50;0.40;;;9.70;99.90;;;;;;5141413;27;20230;-87
2023/10/28 06:35:47;;;;;;;0.60;0.60;;;9.70;99.90;;;;;;5134104;27;20207;-85
2023/10/28 06:38:14;;;;;;;0.50;0.40;;;9.80;99.90;;;;;;5129980;27;20244;-84
2023/10/28 06:40:41;;;;;;;0.50;0.43;;;9.80;99.90;;;;;;5122019;27;20571;-86
2023/10/28 06:43:07;;;;;;;0.50;0.40;;;9.80;99.90;;;;;;5137599;27;20231;-83
2023/10/28 06:45:34;;;;;;;0.50;0.40;;;9.80;99.90;;;;;;5129856;27;20258;-85
2023/10/28 06:48:03;;;;;;;0.50;0.40;;;9.80;99.90;;;;;;5128765;27;20279;-84
2023/10/28 06:50:30;;;;;;;0.50;0.40;;;9.80;99.90;;;;;;5128327;27;20228;-85
2023/10/28 06:52:59;;;;;;;0.50;0.40;;;9.90;99.90;;;;;;5130127;27;20284;-84
2023/10/28 06:55:27;;;;;;;0.50;0.40;;;10.00;99.90;;;;;;5126417;27;21717;-84
2023/10/28 06:57:56;;;;;;;0.50;0.40;;;9.90;99.90;;;;;;5137791;27;20196;-87
2023/10/28 07:00:27;;;;;;;0.50;0.50;;;10.00;99.90;;;;;;5128786;27;20201;-84
2023/10/28 07:02:54;;;;;;;0.45;0.40;;;10.00;99.90;;;;;;5129072;27;20254;-85
2023/10/28 07:05:24;;;;;;;0.50;0.40;;;10.00;99.90;;;;;;5120297;27;20594;-85
2023/10/28 07:07:51;;;;;;;0.50;0.40;;;10.00;99.90;;;;;;5131471;27;20203;-85
2023/10/28 07:10:18;;;;;;;0.60;0.50;;;10.00;99.90;;;;;;5128606;27;20232;-84
2023/10/28 07:12:45;;;;;;;0.47;0.40;;;10.10;99.90;;;;;;5124013;27;20450;-86
2023/10/28 07:15:12;;;;;;;0.40;0.40;;;10.10;99.90;;;;;;5132543;27;20708;-84
2023/10/28 07:17:39;;;;;;;0.50;0.40;;;10.10;99.90;;;;;;5124023;27;20288;-82
2023/10/28 07:20:07;;;;;;;0.60;0.57;;;10.20;99.90;;;;;;5124879;27;20250;-84
2023/10/28 07:22:35;;;;;;;0.50;0.40;;;10.20;99.90;;;;;;5125816;27;20193;-85
2023/10/28 07:25:04;;;;;;;4.30;0.82;;;10.30;99.90;;;;;;5127605;27;20196;-86
2023/10/28 07:27:31;;;;;;;1.42;0.60;;;10.40;99.90;;;;;;5130061;27;20216;-84
2023/10/28 07:29:59;;;;;;;0.50;0.40;;;10.50;99.90;;;;;;5129459;27;20799;-84
2023/10/28 07:32:26;;;;;;;0.50;0.40;;;10.60;99.90;;;;;;5129300;27;20199;-84
2023/10/28 07:34:52;;;;;;;0.50;0.40;;;10.70;99.90;;;;;;5130639;27;20568;-85
2023/10/28 07:37:19;;;;;;;0.50;0.40;;;10.80;99.90;;;;;;5129494;27;20624;-84
2023/10/28 07:39:48;;;;;;;1.27;0.53;;;11.00;99.90;;;;;;5119388;28;20466;-84
2023/10/28 07:42:15;;;;;;;0.50;0.40;;;11.00;99.90;;;;;;5135534;27;20457;-86
2023/10/28 07:44:42;;;;;;;0.50;0.40;;;11.00;99.90;;;;;;5127199;27;20489;-85
2023/10/28 07:47:10;;;;;;;0.50;0.40;;;11.00;99.90;;;;;;5127109;27;20443;-85
2023/10/28 07:49:37;;;;;;;0.50;0.40;;;11.00;99.90;;;;;;5127079;27;20446;-85
2023/10/28 07:52:05;;;;;;;0.50;0.30;;;11.00;99.90;;;;;;5127720;27;20540;-84
2023/10/28 07:54:32;;;;;;;0.50;0.50;;;11.10;99.90;;;;;;5135352;27;20339;-85
2023/10/28 07:57:00;;;;;;;0.50;0.40;;;11.10;99.90;;;;;;5126609;27;20442;-86
2023/10/28 07:59:27;;;;;;;0.50;0.40;;;11.10;99.90;;;;;;5129545;27;20201;-85
2023/10/28 08:01:54;;;;;;;0.60;0.50;;;11.30;99.90;;;;;;5130471;27;20444;-85
2023/10/28 08:04:21;;;;;;;0.50;0.40;;;11.40;99.90;;;;;;5129622;27;20457;-84
2023/10/28 08:06:48;;;;;;;0.50;0.40;;;11.50;99.90;;;;;;5134588;27;20501;-84
2023/10/28 08:09:15;;;;;;;0.70;0.60;;;11.60;99.90;;;;;;5134976;27;20433;-84
2023/10/28 08:11:41;;;;;;;0.50;0.40;;;11.60;99.90;;;;;;5126560;27;20522;-84
2023/10/28 08:14:10;;;;;;;0.60;0.60;;;11.60;99.90;;;;;;5126052;27;20455;-85
2023/10/28 08:16:36;;;;;;;0.60;0.60;;;11.60;99.90;;;;;;5129838;27;20529;-85
2023/10/28 08:19:04;;;;;;;0.50;0.40;;;11.60;99.90;;;;;;5130484;27;20442;-84
2023/10/28 08:21:31;;;;;;;0.50;0.40;;;11.60;99.90;;;;;;5121669;27;20443;-85
2023/10/28 08:23:58;;;;;;;0.50;0.40;;;11.70;99.90;;;;;;5132082;27;20490;-85
2023/10/28 08:26:26;;;;;;;0.50;0.40;;;11.80;99.90;;;;;;5127719;27;20435;-86
2023/10/28 08:28:53;;;;;;;0.50;0.40;;;11.80;99.90;;;;;;5129991;28;20442;-84
2023/10/28 08:31:21;;;;;;;0.50;0.40;;;11.90;99.90;;;;;;5128803;27;20450;-83
2023/10/28 08:33:50;;;;;;;0.50;0.40;;;11.90;99.90;;;;;;5125400;28;20835;-83
2023/10/28 08:36:18;;;;;;;0.50;0.40;;;11.80;99.90;;;;;;5125041;28;20492;-86
2023/10/28 08:38:47;;;;;;;0.50;0.40;;;11.70;99.90;;;;;;5134228;27;20443;-85
2023/10/28 08:41:16;;;;;;;0.50;0.40;;;11.60;99.90;;;;;;5124809;27;20446;-84
2023/10/28 08:43:45;;;;;;;0.77;0.50;;;11.50;99.90;;;;;;5121915;27;20860;-84
2023/10/28 08:46:13;;;;;;;0.50;0.30;;;11.50;99.90;;;;;;5121687;28;20539;-85
2023/10/28 08:48:43;;;;;;;0.50;0.40;;;11.40;99.90;;;;;;5128976;28;20444;-85
2023/10/28 08:51:11;;;;;;;0.50;0.40;;;11.40;99.90;;;;;;5121765;28;20500;-86
2023/10/28 08:53:38;;;;;;;1.23;0.60;;;11.40;99.90;;;;;;5128815;28;20287;-85
2023/10/28 08:56:06;;;;;;;0.50;0.50;;;11.30;99.90;;;;;;5129093;27;20529;-83
2023/10/28 08:58:33;;;;;;;0.43;0.40;;;11.20;99.90;;;;;;5127808;27;20452;-83
2023/10/28 09:01:01;;;;;;;0.80;0.80;;;11.10;99.90;;;;;;5123140;28;20446;-83
2023/10/28 09:03:30;;;;;;;0.47;0.40;;;11.10;99.90;;;;;;5121679;27;20506;-81
2023/10/28 09:05:59;;;;;;;0.40;0.40;;;11.20;99.90;;;;;;5131833;28;20439;-84
2023/10/28 09:08:27;;;;;;;0.50;0.40;;;11.20;99.90;;;;;;5128588;27;20797;-83
2023/10/28 09:10:54;;;;;;;0.50;0.40;;;11.30;99.90;;;;;;5128652;28;20503;-82
2023/10/28 09:13:21;;;;;;;0.70;0.60;;;11.50;99.90;;;;;;5128810;28;20473;-84
2023/10/28 09:15:48;;;;;;;0.97;0.60;;;11.50;99.90;;;;;;5135876;27;20477;-83
2023/10/28 09:18:16;;;;;;;0.50;0.40;;;11.50;99.90;;;;;;5128869;27;20922;-84
2023/10/28 09:20:43;;;;;;;0.50;0.40;;;11.50;99.90;;;;;;5139302;27;20438;-83
2023/10/28 09:23:14;;;;;;;0.50;0.30;;;11.60;99.90;;;;;;5130111;27;20458;-85
2023/10/28 09:25:41;;;;;;;0.50;0.40;;;11.70;99.90;;;;;;5130644;27;20438;-84
2023/10/28 09:28:15;;;;;;;0.50;0.40;;;11.80;99.90;;;;;;5137630;27;20437;-85
2023/10/28 09:30:46;;;;;;;0.47;0.37;;;11.90;99.90;;;;;;5124283;27;20478;-84
2023/10/28 09:33:14;;;;;;;0.50;0.40;;;11.90;99.90;;;;;;5130774;27;20465;-84
2023/10/28 09:35:43;;;;;;;0.50;0.40;;;11.90;99.90;;;;;;5131066;27;20483;-85
2023/10/28 09:38:12;;;;;;;0.50;0.40;;;11.90;99.90;;;;;;5131492;27;20535;-85
2023/10/28 09:40:39;;;;;;;0.50;0.40;;;11.80;99.90;;;;;;5134873;27;20469;-82
2023/10/28 09:43:07;;;;;;;0.47;0.30;;;11.80;99.90;;;;;;5143663;27;20545;-84
2023/10/28 09:45:35;;;;;;;3.17;0.70;;;11.80;99.90;;;;;;5133744;27;20532;-84
2023/10/28 09:48:12;;;;;;;0.60;0.50;;;11.80;99.90;;;;;;5129420;27;20879;-85
2023/10/28 09:50:47;;;;;;;0.50;0.40;;;11.70;99.90;;;;;;5136042;27;20526;-85
2023/10/28 09:53:18;;;;;;;0.60;0.60;;;11.70;99.90;;;;;;5136143;27;20485;-83
2023/10/28 09:55:46;;;;;;;0.50;0.40;;;11.70;99.90;;;;;;5131772;27;20479;-85
2023/10/28 09:58:19;;;;;;;0.50;0.40;;;11.70;99.90;;;;;;5131890;27;20530;-86
2023/10/28 10:00:49;;;;;;;0.50;0.40;;;11.70;99.90;;;;;;5133994;27;20483;-84
2023/10/28 10:03:30;;;;;;;0.50;0.40;;;11.70;99.90;;;;;;5135659;27;20469;-85
2023/10/28 10:05:58;;;;;;;0.50;0.50;;;11.70;99.90;;;;;;5124821;27;20435;-86
2023/10/28 10:08:26;;;;;;;0.50;0.40;;;11.80;99.90;;;;;;5130072;27;20435;-82
2023/10/28 10:10:55;;;;;;;0.50;0.40;;;11.80;99.90;;;;;;5134672;27;20525;-83
2023/10/28 10:13:23;;;;;;;0.50;0.40;;;12.00;99.90;;;;;;5125634;27;20459;-84
2023/10/28 10:15:55;;;;;;;8.57;1.10;;;12.00;99.90;;;;;;5133847;27;21040;-84
2023/10/28 10:18:31;;;;;;;0.50;0.50;;;12.10;99.90;;;;;;5134200;27;20434;-87
2023/10/28 10:21:05;;;;;;;0.50;0.30;;;12.20;99.90;;;;;;5123315;27;20446;-85
2023/10/28 10:23:41;;;;;;;0.50;0.30;;;12.20;99.90;;;;;;5124170;27;20447;-85
2023/10/28 10:26:20;;;;;;;0.50;0.40;;;12.20;99.90;;;;;;5137754;27;20449;-86
2023/10/28 10:28:47;;;;;;;0.83;0.70;;;12.30;99.90;;;;;;5134400;27;20466;-86
2023/10/28 10:31:14;;;;;;;0.77;0.50;;;12.40;99.90;;;;;;5134891;27;20489;-84
2023/10/28 10:33:41;;;;;;;0.50;0.50;;;12.60;99.90;;;;;;5134397;27;20492;-84
2023/10/28 10:36:15;;;;;;;5.03;0.60;;;12.70;99.90;;;;;;5133411;27;20553;-84
2023/10/28 10:38:45;;;;;;;0.50;0.40;;;12.80;99.90;;;;;;5131229;27;20529;-85
2023/10/28 10:41:23;;;;;;;0.50;0.47;;;12.80;99.90;;;;;;5135873;27;20483;-84
2023/10/28 10:43:50;;;;;;;0.90;0.70;;;12.90;99.90;;;;;;5134231;27;20828;-85
2023/10/28 10:46:17;;;;;;;12.30;2.43;;;13.10;99.90;;;;;;5135078;27;20525;-84
2023/10/28 10:48:46;;;;;;;0.50;0.50;;;13.00;99.90;;;;;;5131942;27;20462;-85
2023/10/28 10:51:14;;;;;;;0.87;0.50;;;13.10;99.90;;;;;;5120731;28;20639;-83
2023/10/28 10:53:44;;;;;;;0.50;0.40;;;13.30;99.90;;;;;;5130576;27;20443;-85
2023/10/28 10:56:21;;;;;;;0.50;0.40;;;13.40;99.90;;;;;;5131487;27;20470;-83
2023/10/28 10:58:47;;;;;;;0.50;0.40;;;13.60;99.90;;;;;;5129122;27;20528;-85
2023/10/28 11:01:15;;;;;;;0.50;0.40;;;13.90;99.90;;;;;;5134345;27;20440;-86
2023/10/28 11:03:44;;;;;;;0.50;0.40;;;14.20;99.90;;;;;;5132465;27;20457;-85
2023/10/28 11:06:12;;;;;;;1.00;0.90;;;14.60;99.90;;;;;;5133487;27;20506;-84
2023/10/28 11:08:39;;;;;;;0.50;0.43;;;14.80;99.90;;;;;;5130653;27;20445;-85
2023/10/28 11:11:08;;;;;;;1.03;0.90;;;15.10;99.90;;;;;;5124969;27;20505;-83
2023/10/28 11:13:35;;;;;;;0.50;0.40;;;15.20;99.90;;;;;;5131326;27;20546;-85
2023/10/28 11:16:02;;;;;;;0.50;0.40;;;15.20;99.90;;;;;;5132644;27;20507;-84
2023/10/28 11:18:28;;;;;;;0.50;0.30;;;15.30;99.90;;;;;;5124296;27;20507;-84
2023/10/28 11:20:55;;;;;;;0.50;0.40;;;15.40;99.90;;;;;;5131680;27;20442;-83
2023/10/28 11:23:22;;;;;;;0.50;0.33;;;15.30;99.90;;;;;;5127510;27;20537;-85
2023/10/28 11:25:49;;;;;;;0.50;0.40;;;15.30;99.90;;;;;;5131450;27;20449;-86
2023/10/28 11:28:17;;;;;;;0.50;0.40;;;15.40;99.90;;;;;;5136174;27;20476;-83
2023/10/28 11:30:50;;;;;;;0.50;0.40;;;15.30;99.90;;;;;;5133822;27;20466;-85
2023/10/28 11:33:16;;;;;;;0.50;0.40;;;15.40;99.90;;;;;;5133168;27;20460;-86
2023/10/28 11:35:43;;;;;;;0.50;0.30;;;15.60;99.90;;;;;;5131367;27;20475;-85
2023/10/28 11:38:10;;;;;;;0.50;0.40;;;15.50;99.90;;;;;;5126912;27;20481;-85
2023/10/28 11:40:37;;;;;;;0.50;0.40;;;15.60;99.90;;;;;;5132315;27;20439;-82
2023/10/28 11:43:05;;;;;;;0.50;0.40;;;15.60;99.90;;;;;;5130068;27;21016;-85
2023/10/28 11:45:34;;;;;;;0.50;0.40;;;15.50;99.90;;;;;;5137984;27;20430;-82
2023/10/28 11:48:01;;;;;;;0.60;0.60;;;15.70;99.90;;;;;;5117065;27;20545;-86
2023/10/28 11:50:28;;;;;;;4.63;1.07;;;16.00;99.90;;;;;;5133154;27;20445;-84
2023/10/28 11:52:55;;;;;;;0.50;0.40;;;16.00;99.90;;;;;;5131974;27;21007;-82
2023/10/28 11:55:21;;;;;;;0.50;0.40;;;16.00;99.90;;;;;;5125130;27;20550;-82
2023/10/28 11:57:50;;;;;;;0.50;0.40;;;15.80;99.90;;;;;;5130083;27;20447;-84
2023/10/28 12:00:17;;;;;;;0.50;0.40;;;15.50;99.90;;;;;;5127036;27;20474;-84
2023/10/28 12:02:45;;;;;;;0.50;0.40;;;15.30;99.90;;;;;;5136584;27;20464;-83
2023/10/28 12:05:13;;;;;;;0.50;0.40;;;15.20;99.90;;;;;;5128922;27;20502;-85
2023/10/28 12:07:41;;;;;;;0.63;0.63;;;15.00;99.90;;;;;;5128446;27;20443;-85
2023/10/28 12:10:10;;;;;;;0.50;0.40;;;14.80;99.90;;;;;;5136597;27;20439;-83
2023/10/28 12:12:37;;;;;;;0.60;0.50;;;14.90;99.90;;;;;;5127556;27;20443;-84
2023/10/28 12:15:05;;;;;;;1.00;1.00;;;15.10;99.90;;;;;;5128861;27;20527;-85
2023/10/28 12:17:31;;;;;;;1.13;0.77;;;15.10;99.90;;;;;;5127860;27;20477;-84
2023/10/28 12:19:59;;;;;;;0.50;0.50;;;14.80;99.90;;;;;;5128442;27;20510;-83
2023/10/28 12:22:26;;;;;;;0.80;0.70;;;14.80;99.90;;;;;;5125626;27;20470;-81
2023/10/28 12:24:53;;;;;;;1.13;0.80;;;14.80;99.90;;;;;;5121914;28;20858;-84
2023/10/28 12:27:20;;;;;;;0.50;0.40;;;14.80;99.90;;;;;;5131103;27;20445;-83
2023/10/28 12:29:47;;;;;;;1.10;0.70;;;14.90;99.90;;;;;;5128136;28;20442;-81
2023/10/28 12:32:14;;;;;;;6.00;0.90;;;15.00;99.90;;;;;;5131332;28;20477;-82
2023/10/28 12:34:40;;;;;;;0.60;0.50;;;14.90;99.90;;;;;;5130209;27;20509;-82
2023/10/28 12:37:09;;;;;;;0.90;0.90;;;14.80;99.90;;;;;;5130981;28;21201;-85
2023/10/28 12:39:36;;;;;;;0.50;0.40;;;14.70;99.90;;;;;;5130819;28;20449;-82
2023/10/28 12:42:03;;;;;;;0.50;0.50;;;14.60;99.90;;;;;;5131088;28;20442;-83
2023/10/28 12:44:30;;;;;;;0.80;0.80;;;14.50;99.90;;;;;;5131388;28;20482;-81
2023/10/28 12:46:56;;;;;;;0.50;0.50;;;14.70;99.90;;;;;;5137510;27;20440;-83
2023/10/28 12:49:23;;;;;;;0.50;0.40;;;14.90;99.90;;;;;;5130362;28;20435;-82
2023/10/28 12:51:50;;;;;;;0.70;0.67;;;14.80;99.90;;;;;;5135364;27;20438;-83